Time;durP1;ratioP1;P1;durP2;ratioP2;P2;SDS_P1;SDS_P2;PMS_P1;PMS_P2;Temp;Humidity;BMP_temperature;BMP_pressure;BME280_temperature;BME280_humidity;BME280_pressure;Samples;Min_cycle;Max_cycle;Signal;HPM_P1;HPM_P2
2022/07/07 00:01:02;;;;;;;9.32;6.90;;;;;;;17.00;100.00;93217.94;5091845;28;20493;-76
2022/07/07 00:03:28;;;;;;;8.68;7.05;;;;;;;17.01;100.00;93223.91;5087496;28;20040;-76
2022/07/07 00:05:55;;;;;;;7.75;6.15;;;;;;;16.89;100.00;93204.09;5087681;28;20043;-76
2022/07/07 00:08:22;;;;;;;7.28;6.03;;;;;;;16.97;100.00;93221.03;5089369;28;20044;-76
2022/07/07 00:10:49;;;;;;;12.90;6.90;;;;;;;16.93;100.00;93217.34;5089349;28;20055;-76
2022/07/07 00:13:16;;;;;;;8.55;6.50;;;;;;;16.86;100.00;93224.56;5089465;28;20390;-76
2022/07/07 00:15:45;;;;;;;8.85;6.72;;;;;;;16.74;100.00;93222.94;5089393;28;20505;-77
2022/07/07 00:18:13;;;;;;;7.07;6.38;;;;;;;16.72;100.00;93227.59;5089397;28;20048;-76
2022/07/07 00:20:40;;;;;;;10.07;6.75;;;;;;;16.70;100.00;93221.84;5089054;28;20127;-76
2022/07/07 00:23:07;;;;;;;8.35;6.45;;;;;;;16.74;100.00;93224.72;5089259;28;20558;-76
2022/07/07 00:25:34;;;;;;;7.78;6.45;;;;;;;16.68;100.00;93224.69;5089773;28;20920;-76
2022/07/07 00:28:00;;;;;;;7.88;6.47;;;;;;;16.61;100.00;93231.91;5089366;28;20039;-76
2022/07/07 00:30:27;;;;;;;8.73;7.40;;;;;;;16.55;100.00;93227.69;5089386;28;20451;-76
2022/07/07 00:32:54;;;;;;;11.50;7.22;;;;;;;16.50;100.00;93231.03;5089013;28;20587;-76
2022/07/07 00:35:22;;;;;;;11.65;7.43;;;;;;;16.30;100.00;93229.03;5090991;28;20450;-76
2022/07/07 00:37:49;;;;;;;8.48;7.32;;;;;;;16.31;100.00;93222.81;5098642;28;20094;-76
2022/07/07 00:40:16;;;;;;;8.00;7.20;;;;;;;16.36;100.00;93229.84;5098102;28;20092;-76
2022/07/07 00:42:42;;;;;;;9.77;7.15;;;;;;;16.36;100.00;93224.69;5088876;28;20071;-76
2022/07/07 00:45:10;;;;;;;9.32;6.97;;;;;;;16.41;100.00;93222.13;5089193;28;20098;-76
2022/07/07 00:47:40;;;;;;;7.68;6.70;;;;;;;16.44;100.00;93229.44;5102986;28;20051;-76
2022/07/07 00:50:07;;;;;;;8.48;7.22;;;;;;;16.47;100.00;93225.56;5089208;28;20472;-76
2022/07/07 00:52:35;;;;;;;7.43;6.72;;;;;;;16.46;100.00;93211.81;5088640;28;20564;-76
2022/07/07 00:55:02;;;;;;;7.97;6.20;;;;;;;16.47;100.00;93218.56;5089078;28;20048;-76
2022/07/07 00:57:31;;;;;;;9.57;6.43;;;;;;;16.44;100.00;93211.28;5088825;28;20050;-76
2022/07/07 01:00:00;;;;;;;10.48;6.65;;;;;;;16.51;100.00;93208.47;5088956;28;20052;-76
2022/07/07 01:02:29;;;;;;;6.72;6.03;;;;;;;16.52;100.00;93210.81;5103256;28;20043;-76
2022/07/07 01:04:57;;;;;;;6.95;6.25;;;;;;;16.44;100.00;93206.09;5097652;28;20564;-76
2022/07/07 01:07:24;;;;;;;8.07;6.68;;;;;;;16.46;100.00;93211.81;5088233;28;20044;-76
2022/07/07 01:09:53;;;;;;;6.32;5.63;;;;;;;16.37;100.00;93213.28;5088684;28;20551;-76
2022/07/07 01:12:19;;;;;;;6.72;6.13;;;;;;;16.34;100.00;93219.72;5101486;28;20454;-76
2022/07/07 01:14:46;;;;;;;6.90;5.68;;;;;;;16.25;100.00;93211.63;5108585;28;20047;-76
2022/07/07 01:17:13;;;;;;;6.68;5.82;;;;;;;16.22;100.00;93216.50;5105747;28;20467;-76
2022/07/07 01:19:40;;;;;;;7.47;6.10;;;;;;;16.19;100.00;93219.59;5106492;28;20047;-76
2022/07/07 01:22:12;;;;;;;8.32;6.00;;;;;;;16.16;100.00;93213.09;5103411;28;20096;-76
2022/07/07 01:24:40;;;;;;;7.75;6.25;;;;;;;16.18;100.00;93221.41;5111239;28;20039;-76
2022/07/07 01:27:09;;;;;;;7.47;6.38;;;;;;;16.17;100.00;93212.84;5112574;28;20048;-76
2022/07/07 01:29:37;;;;;;;7.70;6.45;;;;;;;16.17;100.00;93220.59;5112130;28;20048;-76
2022/07/07 01:32:05;;;;;;;7.63;6.38;;;;;;;16.22;100.00;93219.91;5112114;28;20052;-76
2022/07/07 01:34:32;;;;;;;7.07;6.38;;;;;;;15.89;100.00;93180.91;5094522;28;20142;-76
2022/07/07 01:36:59;;;;;;;7.82;7.03;;;;;;;16.07;100.00;93211.97;5091505;28;20040;-76
2022/07/07 01:39:26;;;;;;;7.95;6.85;;;;;;;16.00;100.00;93206.97;5091559;28;20061;-75
2022/07/07 01:41:54;;;;;;;9.02;7.28;;;;;;;15.92;100.00;93213.31;5091424;28;20113;-76
2022/07/07 01:44:21;;;;;;;11.93;7.32;;;;;;;15.94;100.00;93208.72;5091641;28;20104;-76
2022/07/07 01:46:48;;;;;;;8.45;6.60;;;;;;;15.98;100.00;93212.38;5104785;28;20056;-76
2022/07/07 01:49:14;;;;;;;7.55;6.75;;;;;;;15.92;100.00;93204.78;5112077;28;20521;-74
2022/07/07 01:51:41;;;;;;;7.55;6.40;;;;;;;15.82;100.00;93210.63;5112053;28;20051;-74
2022/07/07 01:54:08;;;;;;;9.30;6.70;;;;;;;15.80;100.00;93200.50;5112127;28;20047;-74
2022/07/07 01:56:35;;;;;;;10.40;7.07;;;;;;;15.80;100.00;93203.09;5111834;28;20043;-74
2022/07/07 01:59:03;;;;;;;7.72;6.35;;;;;;;15.68;100.00;93194.66;5111682;28;20096;-74
2022/07/07 02:01:30;;;;;;;8.55;7.05;;;;;;;15.77;100.00;93194.00;5111803;28;20043;-74
2022/07/07 02:03:57;;;;;;;8.43;7.53;;;;;;;15.76;100.00;93196.84;5111465;28;20035;-74
2022/07/07 02:06:24;;;;;;;7.95;6.60;;;;;;;15.80;100.00;93202.31;5112069;28;20412;-74
2022/07/07 02:08:51;;;;;;;7.55;6.65;;;;;;;15.83;100.00;93209.63;5111777;28;20134;-74
2022/07/07 02:11:17;;;;;;;7.63;6.70;;;;;;;15.74;100.00;93214.44;5111655;28;20438;-74
2022/07/07 02:13:47;;;;;;;7.93;7.13;;;;;;;15.68;100.00;93202.44;5111284;28;20043;-74
2022/07/07 02:16:16;;;;;;;8.43;7.30;;;;;;;15.65;100.00;93205.50;5111809;28;20039;-75
2022/07/07 02:18:45;;;;;;;8.15;6.47;;;;;;;15.66;100.00;93207.88;5111399;28;20492;-74
2022/07/07 02:21:13;;;;;;;8.23;7.43;;;;;;;15.60;100.00;93198.47;5111245;28;20071;-74
2022/07/07 02:23:41;;;;;;;8.65;7.45;;;;;;;15.60;100.00;93199.25;5111512;28;20538;-74
2022/07/07 02:26:08;;;;;;;7.90;6.88;;;;;;;15.52;100.00;93196.28;5111539;28;20097;-74
2022/07/07 02:28:35;;;;;;;11.18;7.15;;;;;;;15.54;100.00;93207.97;5111398;28;20039;-74
2022/07/07 02:31:02;;;;;;;7.95;7.03;;;;;;;15.51;100.00;93205.88;5111090;28;20097;-73
2022/07/07 02:33:30;;;;;;;8.98;7.25;;;;;;;15.57;100.00;93207.50;5111398;28;20120;-74
2022/07/07 02:35:57;;;;;;;9.07;7.22;;;;;;;15.59;100.00;93208.03;5110887;28;20043;-74
2022/07/07 02:38:25;;;;;;;8.48;6.38;;;;;;;15.55;100.00;93213.94;5111314;28;20092;-74
2022/07/07 02:40:53;;;;;;;7.28;6.38;;;;;;;15.50;100.00;93196.53;5111185;28;20104;-74
2022/07/07 02:43:20;;;;;;;9.85;6.65;;;;;;;15.56;100.00;93213.69;5111187;28;20056;-74
2022/07/07 02:45:48;;;;;;;8.23;6.20;;;;;;;15.55;100.00;93211.34;5111016;28;20100;-74
2022/07/07 02:48:16;;;;;;;9.60;6.63;;;;;;;15.53;100.00;93213.38;5111121;28;20059;-74
2022/07/07 02:50:45;;;;;;;9.68;6.85;;;;;;;15.52;100.00;93206.66;5111065;28;20168;-74
2022/07/07 02:53:12;;;;;;;6.72;6.03;;;;;;;15.54;100.00;93207.97;5111051;28;20047;-74
2022/07/07 02:55:40;;;;;;;12.15;6.63;;;;;;;15.52;100.00;93207.44;5110868;28;20040;-74
2022/07/07 02:58:08;;;;;;;10.43;7.45;;;;;;;15.54;100.00;93220.91;5110880;28;20092;-74
2022/07/07 03:00:36;;;;;;;10.68;7.20;;;;;;;15.47;100.00;93210.72;5110404;28;20043;-74
2022/07/07 03:03:04;;;;;;;8.48;6.88;;;;;;;15.48;100.00;93214.91;5110778;28;20123;-74
2022/07/07 03:05:32;;;;;;;13.30;6.97;;;;;;;15.36;100.00;93199.47;5110629;28;20508;-74
2022/07/07 03:08:00;;;;;;;10.05;6.90;;;;;;;15.57;100.00;93225.63;5110263;28;20497;-74
2022/07/07 03:10:27;;;;;;;10.20;6.70;;;;;;;15.55;100.00;93230.25;5110606;28;20039;-74
2022/07/07 03:12:54;;;;;;;8.90;6.30;;;;;;;15.56;100.00;93231.81;5110679;28;20463;-74
2022/07/07 03:15:21;;;;;;;10.35;6.65;;;;;;;15.52;100.00;93230.75;5110313;28;20495;-75
2022/07/07 03:17:51;;;;;;;10.75;6.70;;;;;;;15.43;100.00;93227.00;5110181;28;20039;-74
2022/07/07 03:20:19;;;;;;;7.45;6.40;;;;;;;15.39;100.00;93225.91;5110124;28;20126;-74
2022/07/07 03:22:46;;;;;;;11.18;6.68;;;;;;;15.36;100.00;93225.34;5110262;28;20438;-75
2022/07/07 03:25:14;;;;;;;9.10;6.35;;;;;;;15.35;100.00;93234.16;5110451;28;20439;-75
2022/07/07 03:27:41;;;;;;;7.75;5.80;;;;;;;15.36;100.00;93233.13;5110421;28;20100;-75
2022/07/07 03:30:10;;;;;;;7.57;5.78;;;;;;;15.38;100.00;93230.31;5109966;28;20447;-75
2022/07/07 03:32:37;;;;;;;9.68;6.13;;;;;;;15.39;100.00;93226.69;5109839;28;20040;-75
2022/07/07 03:35:05;;;;;;;9.98;5.30;;;;;;;15.35;100.00;93217.81;5109824;28;20048;-74
2022/07/07 03:37:33;;;;;;;6.35;5.20;;;;;;;15.39;100.00;93225.91;5109801;28;20047;-74
2022/07/07 03:39:59;;;;;;;12.63;6.13;;;;;;;15.39;100.00;93226.69;5109727;28;20089;-75
2022/07/07 03:42:27;;;;;;;6.95;5.28;;;;;;;15.38;100.00;93226.91;5108956;28;20113;-75
2022/07/07 03:44:54;;;;;;;7.95;4.93;;;;;;;15.40;100.00;93228.25;5109924;28;20100;-74
2022/07/07 03:47:21;;;;;;;8.20;4.57;;;;;;;15.42;100.00;93228.78;5109842;28;20120;-75
2022/07/07 03:49:48;;;;;;;7.38;5.18;;;;;;;15.45;100.00;93228.31;5109567;28;20048;-75
2022/07/07 03:52:14;;;;;;;6.72;5.45;;;;;;;15.45;100.00;93233.50;5110244;28;20112;-75
2022/07/07 03:54:41;;;;;;;7.93;5.35;;;;;;;15.43;100.00;93227.78;5091103;28;20047;-75
2022/07/07 03:57:08;;;;;;;6.63;5.05;;;;;;;15.44;100.00;93231.94;5089727;28;20048;-74
2022/07/07 03:59:36;;;;;;;6.53;4.80;;;;;;;15.44;100.00;93225.97;5089155;28;20463;-75
2022/07/07 04:02:03;;;;;;;7.53;4.20;;;;;;;15.51;100.00;93234.34;5087640;28;20055;-74
2022/07/07 04:04:30;;;;;;;5.82;4.60;;;;;;;15.50;100.00;93227.59;5088414;28;20040;-74
2022/07/07 04:06:57;;;;;;;6.35;4.20;;;;;;;15.50;100.00;93223.22;5089151;28;20521;-74
2022/07/07 04:09:24;;;;;;;7.90;4.25;;;;;;;15.57;100.00;93227.44;5089154;28;20551;-74
2022/07/07 04:11:50;;;;;;;5.78;4.18;;;;;;;15.59;100.00;93228.75;5089318;28;20097;-74
2022/07/07 04:14:17;;;;;;;7.18;4.70;;;;;;;15.66;100.00;93226.00;5089160;28;20040;-74
2022/07/07 04:16:45;;;;;;;7.68;4.20;;;;;;;15.72;100.00;93227.63;5089567;28;20052;-74
2022/07/07 04:19:12;;;;;;;8.63;4.90;;;;;;;15.75;100.00;93232.31;5089405;28;20067;-74
2022/07/07 04:21:39;;;;;;;8.27;4.70;;;;;;;15.77;100.00;93222.50;5089048;28;20047;-74
2022/07/07 04:24:06;;;;;;;6.10;4.70;;;;;;;15.77;100.00;93219.91;5089366;28;20056;-75
2022/07/07 04:26:33;;;;;;;7.50;4.75;;;;;;;15.92;100.00;93231.44;5088985;28;20489;-74
2022/07/07 04:29:00;;;;;;;10.23;5.78;;;;;;;15.90;100.00;93228.34;5088896;28;20094;-75
2022/07/07 04:31:26;;;;;;;9.50;5.57;;;;;;;15.98;100.00;93229.75;5088910;28;20109;-75
2022/07/07 04:33:54;;;;;;;12.40;5.93;;;;;;;16.05;100.00;93235.50;5089160;28;20089;-74
2022/07/07 04:36:21;;;;;;;13.38;6.03;;;;;;;16.14;100.00;93234.06;5089013;28;20044;-74
2022/07/07 04:38:48;;;;;;;11.23;6.45;;;;;;;16.23;100.00;93231.81;5089138;28;20121;-74
2022/07/07 04:41:15;;;;;;;8.50;5.93;;;;;;;16.30;100.00;93232.41;5088920;28;20082;-74
2022/07/07 04:43:42;;;;;;;6.78;5.93;;;;;;;16.31;100.00;93233.19;5089069;28;20093;-74
2022/07/07 04:46:08;;;;;;;8.25;5.10;;;;;;;16.38;100.00;93241.53;5097137;28;20044;-74
2022/07/07 04:48:35;;;;;;;8.73;5.70;;;;;;;16.46;100.00;93236.94;5094840;28;20056;-74
2022/07/07 04:51:04;;;;;;;9.85;5.85;;;;;;;16.56;100.00;93240.44;5095063;28;20046;-74
2022/07/07 04:53:30;;;;;;;7.00;4.88;;;;;;;16.57;100.00;93246.38;5098746;28;20562;-74
2022/07/07 04:55:57;;;;;;;13.18;5.40;;;;;;;16.63;100.00;93253.19;5092859;28;20096;-74
2022/07/07 04:58:24;;;;;;;8.25;5.63;;;;;;;16.70;100.00;93245.19;5093074;28;20097;-75
2022/07/07 05:00:51;;;;;;;9.15;6.78;;;;;;;16.85;100.00;93244.53;5092895;28;20094;-75
2022/07/07 05:03:18;;;;;;;7.50;4.22;;;;;;;16.98;100.00;93237.38;5092614;28;20121;-75
2022/07/07 05:05:44;;;;;;;11.68;5.70;;;;;;;17.03;100.00;93234.84;5093050;28;20048;-74
2022/07/07 05:08:13;;;;;;;7.32;4.60;;;;;;;17.05;100.00;93240.56;5093173;28;20130;-75
2022/07/07 05:10:39;;;;;;;6.88;5.15;;;;;;;17.11;100.00;93236.22;5093096;28;20100;-75
2022/07/07 05:13:06;;;;;;;10.38;5.20;;;;;;;17.20;100.00;93221.72;5093045;28;20108;-75
2022/07/07 05:15:33;;;;;;;7.75;4.00;;;;;;;17.31;100.00;93228.53;5093060;28;20470;-75
2022/07/07 05:18:00;;;;;;;5.97;4.10;;;;;;;17.38;100.00;93227.53;5092776;28;20044;-75
2022/07/07 05:20:26;;;;;;;6.78;4.20;;;;;;;17.51;100.00;93234.88;5092542;28;20547;-75
2022/07/07 05:22:53;;;;;;;6.40;3.90;;;;;;;17.55;100.00;93238.50;5092610;28;20054;-75
2022/07/07 05:25:21;;;;;;;6.20;4.60;;;;;;;17.72;100.00;93245.34;5092846;28;20056;-74
2022/07/07 05:27:48;;;;;;;4.60;3.45;;;;;;;17.82;100.00;93237.59;5092608;28;20364;-74
2022/07/07 05:30:16;;;;;;;5.22;3.47;;;;;;;18.00;100.00;93243.38;5092550;28;20043;-75
2022/07/07 05:32:43;;;;;;;4.97;3.63;;;;;;;18.14;100.00;93239.31;5092643;28;20436;-75
2022/07/07 05:35:09;;;;;;;4.43;3.10;;;;;;;18.28;100.00;93239.59;5092576;28;20044;-75
2022/07/07 05:37:36;;;;;;;4.85;3.60;;;;;;;18.16;100.00;93244.25;5092030;28;20097;-75
2022/07/07 05:40:04;;;;;;;6.85;3.22;;;;;;;18.33;100.00;93244.03;5092208;28;20043;-75
2022/07/07 05:42:32;;;;;;;4.80;2.92;;;;;;;18.42;100.00;93241.69;5102500;28;20105;-75
2022/07/07 05:44:59;;;;;;;6.28;3.30;;;;;;;18.56;100.00;93239.38;5096099;28;20048;-75
2022/07/07 05:47:26;;;;;;;4.95;3.47;;;;;;;18.75;100.00;93236.28;5106704;28;20043;-75
2022/07/07 05:49:53;;;;;;;7.38;3.55;;;;;;;19.01;98.09;93238.88;5092101;28;20070;-75
2022/07/07 05:52:19;;;;;;;5.43;3.28;;;;;;;18.81;96.33;93240.44;5092080;28;20052;-75
2022/07/07 05:54:46;;;;;;;6.20;3.65;;;;;;;18.98;98.13;93247.22;5092321;28;20310;-76
2022/07/07 05:57:14;;;;;;;6.65;3.45;;;;;;;19.26;96.13;93251.13;5092141;28;20048;-75
2022/07/07 05:59:42;;;;;;;9.07;3.17;;;;;;;19.52;95.72;93242.50;5094065;28;20044;-75
2022/07/07 06:02:09;;;;;;;6.10;3.55;;;;;;;19.45;96.43;93246.13;5091783;28;20131;-76
2022/07/07 06:04:36;;;;;;;6.03;3.40;;;;;;;19.73;94.78;93251.78;5091319;28;20079;-75
2022/07/07 06:07:03;;;;;;;4.63;3.38;;;;;;;20.03;93.26;93251.97;5092059;28;20044;-75
2022/07/07 06:09:30;;;;;;;4.60;3.28;;;;;;;20.28;92.32;93232.06;5091669;28;20581;-75
2022/07/07 06:11:56;;;;;;;4.88;3.40;;;;;;;20.66;89.80;93268.09;5091492;28;20546;-75
2022/07/07 06:14:23;;;;;;;7.80;3.92;;;;;;;21.07;88.88;93269.66;5091750;28;20044;-75
2022/07/07 06:16:51;;;;;;;4.88;2.80;;;;;;;20.90;86.30;93273.44;5091610;28;20482;-75
2022/07/07 06:19:18;;;;;;;4.32;2.88;;;;;;;21.10;83.65;93276.91;5091564;28;20074;-75
2022/07/07 06:21:45;;;;;;;5.88;2.80;;;;;;;20.79;86.81;93271.91;5091435;28;20044;-75
2022/07/07 06:24:12;;;;;;;6.55;3.05;;;;;;;21.18;87.54;93259.88;5091914;28;20055;-75
2022/07/07 06:26:39;;;;;;;5.15;3.15;;;;;;;21.61;82.93;93265.22;5091186;28;20489;-75
2022/07/07 06:29:06;;;;;;;4.07;2.78;;;;;;;21.43;85.71;93258.88;5091562;28;20048;-75
2022/07/07 06:31:32;;;;;;;3.33;2.60;;;;;;;21.97;82.17;93255.44;5091265;28;20409;-75
2022/07/07 06:34:01;;;;;;;3.42;2.63;;;;;;;22.13;82.52;93256.81;5091099;28;20520;-76
2022/07/07 06:36:28;;;;;;;4.63;2.70;;;;;;;21.95;78.32;93261.00;5090958;28;20094;-76
2022/07/07 06:38:55;;;;;;;3.58;2.88;;;;;;;21.86;80.10;93266.03;5091283;28;20498;-75
2022/07/07 06:41:23;;;;;;;4.38;2.75;;;;;;;21.65;80.81;93270.69;5090953;28;20554;-77
2022/07/07 06:43:50;;;;;;;4.97;2.88;;;;;;;21.93;81.14;93267.56;5090938;28;20143;-76
2022/07/07 06:46:17;;;;;;;6.18;3.10;;;;;;;22.03;80.06;93270.03;5100068;28;20043;-76
2022/07/07 06:48:44;;;;;;;4.10;2.70;;;;;;;22.00;79.05;93266.13;5096252;28;20447;-76
2022/07/07 06:51:12;;;;;;;5.93;3.15;;;;;;;22.64;79.38;93262.47;5090972;28;20093;-76
2022/07/07 06:53:39;;;;;;;4.88;2.58;;;;;;;22.20;78.95;93255.69;5090747;28;20048;-77
2022/07/07 06:56:06;;;;;;;3.88;2.80;;;;;;;22.34;77.37;93261.81;5090691;28;20516;-77
2022/07/07 06:58:33;;;;;;;3.75;2.70;;;;;;;22.50;77.65;93256.38;5090883;28;20114;-76
2022/07/07 07:01:00;;;;;;;3.30;2.33;;;;;;;22.53;76.60;93240.13;5091296;28;20052;-76
2022/07/07 07:03:26;;;;;;;4.55;2.50;;;;;;;22.69;80.53;93256.41;5090585;28;20052;-76
2022/07/07 07:05:54;;;;;;;4.78;2.20;;;;;;;23.18;73.89;93253.53;5090329;28;20048;-76
2022/07/07 07:08:22;;;;;;;4.88;2.50;;;;;;;23.75;73.63;93258.59;5090847;28;20047;-76
2022/07/07 07:10:49;;;;;;;3.28;2.10;;;;;;;24.11;71.04;93245.91;5090549;28;20109;-76
2022/07/07 07:13:16;;;;;;;2.92;2.17;;;;;;;23.55;68.47;93251.13;5090526;28;20420;-76
2022/07/07 07:15:44;;;;;;;2.45;1.50;;;;;;;23.04;67.17;93256.13;5089594;28;20094;-77
2022/07/07 07:18:11;;;;;;;4.53;1.65;;;;;;;22.40;66.64;93265.91;5088939;28;20048;-77
2022/07/07 07:20:40;;;;;;;2.45;1.73;;;;;;;22.18;69.27;93258.63;5087380;28;20047;-77
2022/07/07 07:23:07;;;;;;;2.38;1.27;;;;;;;21.66;71.02;93263.63;5088675;28;20048;-77
2022/07/07 07:25:35;;;;;;;2.10;1.50;;;;;;;21.70;69.41;93269.88;5089699;28;20055;-76
2022/07/07 07:28:01;;;;;;;2.13;1.38;;;;;;;21.41;72.54;93268.81;5089977;28;20036;-77
2022/07/07 07:30:28;;;;;;;2.88;1.80;;;;;;;21.71;72.47;93271.44;5089865;28;20048;-77
2022/07/07 07:32:55;;;;;;;2.63;1.45;;;;;;;22.16;72.38;93260.72;5092677;28;20047;-77
2022/07/07 07:35:22;;;;;;;2.22;1.48;;;;;;;22.61;72.78;93252.56;5100933;28;20048;-76
2022/07/07 07:37:49;;;;;;;1.95;1.27;;;;;;;23.16;66.49;93253.84;5101609;28;20051;-77
2022/07/07 07:40:15;;;;;;;3.65;1.70;;;;;;;23.62;68.08;93251.50;5106731;28;20495;-77
2022/07/07 07:42:44;;;;;;;2.53;1.58;;;;;;;23.69;67.47;93251.88;5090117;28;20044;-77
2022/07/07 07:45:11;;;;;;;2.67;1.70;;;;;;;23.54;67.68;93245.09;5089549;28;21112;-76
2022/07/07 07:47:38;;;;;;;4.32;1.45;;;;;;;23.80;64.85;93251.69;5089766;28;20101;-76
2022/07/07 07:50:06;;;;;;;3.45;1.63;;;;;;;24.05;64.82;93244.38;5091060;28;20043;-77
2022/07/07 07:52:33;;;;;;;1.80;1.23;;;;;;;24.44;63.75;93242.31;5095778;28;20126;-76
2022/07/07 07:55:00;;;;;;;2.42;1.45;;;;;;;24.83;63.32;93240.94;5099746;28;20040;-77
2022/07/07 07:57:26;;;;;;;2.95;1.15;;;;;;;24.71;59.82;93244.06;5089469;28;20047;-78
2022/07/07 07:59:55;;;;;;;2.13;1.30;;;;;;;23.82;64.07;93255.59;5089450;28;20040;-77
2022/07/07 08:02:22;;;;;;;4.40;1.40;;;;;;;24.21;65.90;93242.28;5089740;28;20191;-77
2022/07/07 08:04:48;;;;;;;1.75;1.30;;;;;;;23.36;66.06;93241.47;5089597;28;20101;-76
2022/07/07 08:07:15;;;;;;;2.50;1.30;;;;;;;23.54;64.95;93249.53;5089636;28;20523;-77
2022/07/07 08:09:42;;;;;;;3.13;1.55;;;;;;;23.65;66.43;93242.28;5089298;28;20052;-77
2022/07/07 08:12:09;;;;;;;2.72;1.50;;;;;;;23.50;65.52;93249.34;5089182;28;20052;-77
2022/07/07 08:14:36;;;;;;;3.17;1.40;;;;;;;23.81;62.65;93254.03;5089164;28;20501;-77
2022/07/07 08:17:05;;;;;;;1.73;1.00;;;;;;;23.21;63.30;93258.22;5089236;28;20093;-77
2022/07/07 08:19:32;;;;;;;2.03;1.30;;;;;;;23.42;65.04;93256.03;5089512;28;20044;-77
2022/07/07 08:21:58;;;;;;;2.63;1.33;;;;;;;23.15;64.73;93247.03;5089218;28;20040;-78
2022/07/07 08:24:25;;;;;;;2.03;1.23;;;;;;;22.84;61.04;93271.09;5089142;28;20093;-78
2022/07/07 08:26:52;;;;;;;1.90;1.30;;;;;;;22.89;62.06;93260.53;5092663;28;20085;-78
2022/07/07 08:29:19;;;;;;;2.20;1.50;;;;;;;23.59;62.62;93265.97;5104626;28;20047;-78
2022/07/07 08:31:46;;;;;;;2.83;1.70;;;;;;;23.80;62.85;93264.81;5089355;28;20454;-77
2022/07/07 08:34:14;;;;;;;2.10;1.30;;;;;;;24.20;64.05;93269.59;5089399;28;20112;-77
2022/07/07 08:36:41;;;;;;;3.13;1.10;;;;;;;24.51;61.12;93261.84;5089261;28;20354;-78
2022/07/07 08:39:08;;;;;;;2.10;1.55;;;;;;;25.36;61.72;93267.53;5089133;28;20059;-76
2022/07/07 08:41:35;;;;;;;1.90;1.40;;;;;;;24.90;57.50;93274.69;5089174;28;20085;-78
2022/07/07 08:44:02;;;;;;;2.25;1.15;;;;;;;24.61;58.55;93271.34;5089365;28;20060;-77
2022/07/07 08:46:29;;;;;;;3.42;1.30;;;;;;;25.21;61.04;93274.75;5099432;28;20047;-76
2022/07/07 08:48:57;;;;;;;2.10;1.40;;;;;;;25.86;58.54;93245.50;5092071;28;20382;-76
2022/07/07 08:51:26;;;;;;;3.65;1.80;;;;;;;26.13;57.30;93250.81;5089204;28;20044;-76
2022/07/07 08:53:53;;;;;;;4.05;1.60;;;;;;;26.60;54.75;93245.03;5089030;28;20048;-77
2022/07/07 08:56:20;;;;;;;2.15;1.17;;;;;;;26.59;53.96;93227.69;5088573;28;20052;-76
2022/07/07 08:58:47;;;;;;;2.35;1.30;;;;;;;26.71;52.08;93239.44;5088808;28;20052;-77
2022/07/07 09:01:14;;;;;;;2.30;1.20;;;;;;;25.91;52.88;93244.59;5088860;28;20455;-77
2022/07/07 09:03:41;;;;;;;1.73;1.10;;;;;;;25.74;49.99;93237.44;5089009;28;20060;-76
2022/07/07 09:06:08;;;;;;;2.50;1.27;;;;;;;25.67;49.95;93244.97;5088901;28;20043;-77
2022/07/07 09:08:37;;;;;;;2.20;1.10;;;;;;;25.68;53.37;93242.03;5088970;28;20044;-77
2022/07/07 09:11:10;;;;;;;1.88;1.30;;;;;;;25.54;52.50;93249.25;5088001;28;20051;-77
2022/07/07 09:13:37;;;;;;;2.25;1.15;;;;;;;25.18;54.62;93237.78;5088432;28;20483;-77
2022/07/07 09:16:05;;;;;;;2.15;0.90;;;;;;;25.42;50.58;93250.56;5106933;28;20055;-78
2022/07/07 09:18:35;;;;;;;1.65;1.05;;;;;;;25.58;52.28;93250.19;5098251;28;20088;-77
2022/07/07 09:21:07;;;;;;;2.47;1.00;;;;;;;25.20;52.99;93254.78;5100634;28;20054;-78
2022/07/07 09:23:51;;;;;;;3.00;1.10;;;;;;;24.01;55.61;93258.09;5096854;28;20101;-77
2022/07/07 09:26:35;;;;;;;2.42;1.00;;;;;;;24.75;54.68;93247.66;5099637;28;20071;-76
2022/07/07 09:29:02;;;;;;;1.95;1.00;;;;;;;25.24;54.97;93249.72;5096091;28;20056;-77
2022/07/07 09:31:51;;;;;;;2.58;1.58;;;;;;;25.25;54.86;93251.25;5094399;28;20048;-77
2022/07/07 09:34:19;;;;;;;2.95;1.42;;;;;;;25.71;54.46;93251.97;5096239;28;20143;-77
2022/07/07 09:39:45;;;;;;;4.10;1.85;;;;;;;25.65;55.47;93233.97;5090125;28;20059;-77
2022/07/07 09:42:23;;;;;;;3.15;1.20;;;;;;;25.26;56.49;93233.63;5093836;28;20055;-77
2022/07/07 09:44:52;;;;;;;2.22;1.20;;;;;;;25.25;54.59;93238.09;5102020;28;20523;-77
2022/07/07 09:47:20;;;;;;;6.15;1.70;;;;;;;25.93;54.64;93233.75;5098532;28;20043;-76
2022/07/07 09:50:00;;;;;;;2.20;1.30;;;;;;;24.75;54.66;93245.03;5101648;28;20414;-77
2022/07/07 09:52:27;;;;;;;2.65;1.50;;;;;;;24.31;57.94;93242.06;5103705;28;20130;-76
2022/07/07 09:54:56;;;;;;;2.40;1.40;;;;;;;23.88;57.57;93241.31;5096032;28;20151;-76
2022/07/07 09:57:24;;;;;;;2.05;1.30;;;;;;;24.28;59.77;93230.31;5104695;28;20043;-76
2022/07/07 09:59:50;;;;;;;2.08;1.23;;;;;;;25.00;58.04;93234.25;5104180;28;20458;-77
2022/07/07 10:02:22;;;;;;;2.45;1.40;;;;;;;25.76;57.03;93232.63;5109389;28;20112;-76
2022/07/07 10:04:51;;;;;;;3.13;1.40;;;;;;;26.25;54.31;93224.69;5108253;28;20062;-76
2022/07/07 10:07:22;;;;;;;3.53;1.52;;;;;;;25.45;55.31;93215.00;5109029;28;20085;-78
2022/07/07 10:09:53;;;;;;;3.88;1.30;;;;;;;25.31;56.10;93226.38;5107958;28;20500;-76
2022/07/07 10:12:27;;;;;;;4.78;1.75;;;;;;;24.45;59.96;93221.03;5109252;28;20393;-77
2022/07/07 10:14:58;;;;;;;2.63;1.40;;;;;;;24.42;59.06;93227.66;5108969;28;20052;-77
2022/07/07 10:17:27;;;;;;;4.47;1.27;;;;;;;24.43;59.64;93207.41;5107733;28;20078;-77
2022/07/07 10:19:54;;;;;;;2.63;1.70;;;;;;;25.07;60.70;93217.00;5107752;28;20048;-76
2022/07/07 10:22:26;;;;;;;2.53;1.50;;;;;;;25.68;56.20;93212.34;5107532;28;20044;-76
2022/07/07 10:24:54;;;;;;;3.55;1.20;;;;;;;25.55;54.66;93182.44;5107660;28;20048;-77
2022/07/07 10:27:24;;;;;;;2.20;1.50;;;;;;;25.61;55.76;93212.78;5107873;28;20055;-77
2022/07/07 10:29:53;;;;;;;4.05;1.33;;;;;;;24.94;57.20;93209.94;5105716;28;20040;-77
2022/07/07 10:32:31;;;;;;;2.25;1.60;;;;;;;24.47;58.11;93197.06;5106990;28;20152;-78
2022/07/07 10:34:59;;;;;;;1.98;1.27;;;;;;;24.49;57.75;93213.34;5107579;28;20113;-77
2022/07/07 10:37:27;;;;;;;2.15;1.58;;;;;;;24.39;58.04;93211.72;5107261;28;20076;-77
2022/07/07 10:39:56;;;;;;;3.13;1.65;;;;;;;24.96;56.08;93205.19;5107417;28;20464;-77
2022/07/07 10:43:10;;;;;;;3.92;2.25;;;;;;;25.04;58.55;93201.06;5107165;28;20514;-78
2022/07/07 10:45:44;;;;;;;3.85;1.80;;;;;;;25.37;58.21;93190.25;5086460;28;20052;-77
2022/07/07 10:48:40;;;;;;;2.17;1.40;;;;;;;24.69;59.08;93206.84;5107181;28;20047;-77
2022/07/07 10:51:16;;;;;;;2.30;1.40;;;;;;;24.61;58.70;93192.56;5103917;28;20597;-77
2022/07/07 10:53:55;;;;;;;2.72;1.40;;;;;;;25.25;58.43;93198.69;5093168;28;20056;-77
2022/07/07 10:56:22;;;;;;;4.35;1.20;;;;;;;24.94;54.39;93194.97;5091143;28;20044;-78
2022/07/07 10:58:56;;;;;;;2.85;1.30;;;;;;;24.96;55.53;93197.31;5090567;28;20098;-77
2022/07/07 11:01:26;;;;;;;2.85;1.20;;;;;;;25.33;54.40;93194.53;5100913;28;20048;-77
2022/07/07 11:03:53;;;;;;;3.53;1.50;;;;;;;25.81;55.27;93179.09;5090831;28;20048;-78
2022/07/07 11:06:20;;;;;;;2.20;1.50;;;;;;;24.87;58.21;93193.84;5097314;28;20036;-78
2022/07/07 11:09:08;;;;;;;2.85;1.98;;;;;;;24.78;58.23;93188.50;5094365;28;20052;-78
2022/07/07 11:11:35;;;;;;;2.55;1.60;;;;;;;25.44;57.75;93189.78;5083835;28;20047;-77
2022/07/07 11:14:07;;;;;;;3.13;1.50;;;;;;;25.58;56.04;93187.06;5090570;28;20048;-77
2022/07/07 11:16:36;;;;;;;1.85;1.40;;;;;;;25.86;58.20;93140.25;5090461;28;20040;-77
2022/07/07 11:19:04;;;;;;;2.95;1.45;;;;;;;26.56;54.40;93170.34;5090318;28;20044;-78
2022/07/07 11:21:36;;;;;;;4.60;1.50;;;;;;;26.11;52.24;93179.31;5102684;28;20059;-79
2022/07/07 11:24:13;;;;;;;1.85;1.10;;;;;;;26.38;54.29;93165.06;5091349;28;20110;-78
2022/07/07 11:26:40;;;;;;;2.83;2.20;;;;;;;26.33;51.85;93165.22;5091610;28;20044;-78
2022/07/07 11:29:07;;;;;;;2.08;1.30;;;;;;;26.36;54.17;93162.00;5105783;28;20542;-79
2022/07/07 11:31:35;;;;;;;2.70;1.60;;;;;;;26.64;51.16;93164.28;5090330;28;20040;-79
2022/07/07 11:34:01;;;;;;;2.38;1.40;;;;;;;26.44;51.56;93155.19;5090196;28;20040;-77
2022/07/07 11:36:29;;;;;;;2.78;1.17;;;;;;;26.40;52.40;93160.28;5090141;28;20410;-77